Time;durP1;ratioP1;P1;durP2;ratioP2;P2;SDS_P1;SDS_P2;PMS_P1;PMS_P2;Temp;Humidity;BMP_temperature;BMP_pressure;BME280_temperature;BME280_humidity;BME280_pressure;Samples;Min_cycle;Max_cycle;Signal;HPM_P1;HPM_P2
2022/10/08 00:00:44;;;;;;;0.00;0.00;;;;;;;13.28;100.00;98975.91;4966977;28;20780;-62
2022/10/08 00:03:11;;;;;;;0.00;0.00;;;;;;;13.27;100.00;98967.22;4966842;28;20312;-62
2022/10/08 00:05:37;;;;;;;0.00;0.00;;;;;;;13.29;100.00;98972.31;4968792;28;20222;-62
2022/10/08 00:08:04;;;;;;;0.00;0.00;;;;;;;13.28;100.00;98968.06;4966992;28;20641;-62
2022/10/08 00:10:32;;;;;;;0.00;0.00;;;;;;;13.24;100.00;98964.09;4966734;28;20243;-62
2022/10/08 00:12:59;;;;;;;0.00;0.00;;;;;;;13.23;100.00;98959.84;4965512;28;20618;-62
2022/10/08 00:15:26;;;;;;;0.00;0.00;;;;;;;13.27;100.00;98961.16;4967998;28;20243;-62
2022/10/08 00:17:53;;;;;;;0.00;0.00;;;;;;;13.24;100.00;98971.97;4967798;28;20321;-62
2022/10/08 00:20:20;;;;;;;0.00;0.00;;;;;;;13.21;100.00;98957.41;4967694;28;20238;-62
2022/10/08 00:22:47;;;;;;;0.00;0.00;;;;;;;13.24;100.00;98962.31;4968697;28;20232;-62
2022/10/08 00:25:13;;;;;;;0.00;0.00;;;;;;;13.33;100.00;98951.81;4966003;28;20230;-62
2022/10/08 00:27:41;;;;;;;0.00;0.00;;;;;;;13.37;100.00;98948.75;4968501;28;20316;-62
2022/10/08 00:30:09;;;;;;;0.00;0.00;;;;;;;13.43;100.00;98949.91;4946636;28;20284;-62
2022/10/08 00:32:37;;;;;;;0.00;0.00;;;;;;;13.54;100.00;98943.56;4973430;28;20326;-62
2022/10/08 00:35:05;;;;;;;0.00;0.00;;;;;;;13.60;100.00;98947.31;4968851;28;20640;-62
2022/10/08 00:37:31;;;;;;;0.00;0.00;;;;;;;13.65;100.00;98943.25;4968112;28;20238;-62
2022/10/08 00:39:58;;;;;;;0.00;0.00;;;;;;;13.71;100.00;98945.22;4946657;28;20750;-62
2022/10/08 00:42:24;;;;;;;0.00;0.00;;;;;;;13.81;100.00;98942.41;4965338;28;20243;-62
2022/10/08 00:44:58;;;;;;;0.00;0.00;;;;;;;13.94;100.00;98941.91;4950214;28;20254;-62
2022/10/08 00:47:35;;;;;;;0.00;0.00;;;;;;;14.02;100.00;98934.03;4962334;28;20238;-62
2022/10/08 00:50:06;;;;;;;0.00;0.00;;;;;;;14.12;100.00;98939.13;4962607;28;20237;-62
2022/10/08 00:52:35;;;;;;;0.00;0.00;;;;;;;14.19;100.00;98938.47;4964767;28;20282;-62
2022/10/08 00:55:05;;;;;;;0.00;0.00;;;;;;;14.30;100.00;98938.13;4963299;28;20261;-62
2022/10/08 00:57:33;;;;;;;0.00;0.00;;;;;;;14.45;100.00;98938.25;4972227;28;20321;-62
2022/10/08 01:00:04;;;;;;;0.00;0.00;;;;;;;14.54;100.00;98947.75;4963505;28;20319;-62
2022/10/08 01:02:31;;;;;;;0.00;0.00;;;;;;;14.63;100.00;98938.00;4967550;28;20242;-62
2022/10/08 01:04:57;;;;;;;0.00;0.00;;;;;;;14.66;100.00;98945.56;4962974;28;20274;-62
2022/10/08 01:07:28;;;;;;;0.00;0.00;;;;;;;14.83;100.00;98943.75;4966334;28;20231;-62
2022/10/08 01:10:02;;;;;;;0.00;0.00;;;;;;;14.88;100.00;98944.00;4967035;28;20223;-62
2022/10/08 01:12:40;;;;;;;0.00;0.00;;;;;;;14.90;100.00;98942.03;4963007;28;20243;-62
2022/10/08 01:15:22;;;;;;;0.00;0.00;;;;;;;14.88;100.00;98945.84;4963121;28;20230;-62
2022/10/08 01:17:57;;;;;;;0.00;0.00;;;;;;;14.82;100.00;98936.84;4968779;28;20241;-62
2022/10/08 01:20:36;;;;;;;0.00;0.00;;;;;;;14.76;100.00;98940.16;4965155;28;20239;-62
2022/10/08 01:23:29;;;;;;;0.00;0.00;;;;;;;14.73;100.00;98938.66;4962334;28;20322;-62
2022/10/08 01:25:59;;;;;;;0.00;0.00;;;;;;;14.66;100.00;98937.69;4965806;28;20292;-62
2022/10/08 01:28:33;;;;;;;0.00;0.00;;;;;;;14.63;100.00;98934.59;4964039;28;20235;-62
2022/10/08 01:31:05;;;;;;;0.00;0.00;;;;;;;14.60;100.00;98941.81;4962457;28;20249;-62
2022/10/08 01:33:37;;;;;;;0.00;0.00;;;;;;;14.58;100.00;98942.94;4966317;28;20235;-62
2022/10/08 01:36:05;;;;;;;0.00;0.00;;;;;;;14.58;100.00;98948.22;4960825;28;20290;-62
2022/10/08 01:38:35;;;;;;;0.00;0.00;;;;;;;14.52;100.00;98943.63;4965517;28;20227;-62
2022/10/08 01:41:07;;;;;;;0.00;0.00;;;;;;;14.50;100.00;98951.69;4965070;28;20242;-62
2022/10/08 01:43:39;;;;;;;0.00;0.00;;;;;;;14.47;100.00;98944.16;4967820;28;20239;-62
2022/10/08 01:46:10;;;;;;;0.00;0.00;;;;;;;14.52;100.00;98941.00;4954258;28;20285;-62
2022/10/08 01:48:39;;;;;;;0.00;0.00;;;;;;;14.46;100.00;98940.69;4968664;28;20237;-62
2022/10/08 01:51:12;;;;;;;0.00;0.00;;;;;;;14.46;100.00;98939.88;4966471;28;20238;-62
2022/10/08 01:53:44;;;;;;;0.00;0.00;;;;;;;14.42;100.00;98936.75;4970310;28;20274;-62
2022/10/08 01:56:16;;;;;;;0.00;0.00;;;;;;;14.41;100.00;98937.75;4966507;28;20642;-62
2022/10/08 01:58:51;;;;;;;0.00;0.00;;;;;;;14.38;100.00;98942.53;4969604;28;20726;-62
2022/10/08 02:01:23;;;;;;;0.00;0.00;;;;;;;14.27;100.00;98943.72;4966294;28;20726;-62
2022/10/08 02:06:40;;;;;;;0.00;0.00;;;;;;;14.06;100.00;98952.06;4954994;28;20246;-62
2022/10/08 02:09:06;;;;;;;0.00;0.00;;;;;;;13.97;100.00;98946.03;4966091;28;20644;-62
2022/10/08 02:11:34;;;;;;;0.00;0.00;;;;;;;13.90;100.00;98948.47;4967731;28;20635;-62
2022/10/08 02:14:04;;;;;;;0.00;0.00;;;;;;;13.83;100.00;98950.09;4966397;28;20291;-62
2022/10/08 02:16:33;;;;;;;0.00;0.00;;;;;;;13.80;100.00;98950.44;4967578;28;20323;-62
2022/10/08 02:19:07;;;;;;;0.00;0.00;;;;;;;13.76;100.00;98970.94;4965854;28;20227;-62
2022/10/08 02:21:37;;;;;;;0.00;0.00;;;;;;;13.75;100.00;98971.13;4968445;28;20774;-62
2022/10/08 02:24:12;;;;;;;0.00;0.00;;;;;;;13.68;100.00;98963.06;4966050;28;20239;-62
2022/10/08 02:26:45;;;;;;;0.00;0.00;;;;;;;13.65;100.00;98966.00;4968191;28;20250;-62
2022/10/08 02:29:19;;;;;;;0.00;0.00;;;;;;;13.64;100.00;98973.06;4966548;28;20293;-62
2022/10/08 02:31:50;;;;;;;0.00;0.00;;;;;;;13.65;100.00;98974.72;4968900;28;20324;-62
2022/10/08 02:34:20;;;;;;;0.00;0.00;;;;;;;13.60;100.00;98966.50;4965710;28;20242;-62
2022/10/08 02:36:54;;;;;;;0.00;0.00;;;;;;;13.63;100.00;98971.44;4967752;28;20243;-61
2022/10/08 02:39:24;;;;;;;0.00;0.00;;;;;;;13.64;100.00;98972.25;4965920;28;20626;-61
2022/10/08 02:41:55;;;;;;;0.00;0.00;;;;;;;13.64;100.00;98965.22;4950874;28;20316;-62
2022/10/08 02:44:31;;;;;;;0.00;0.00;;;;;;;13.63;100.00;98962.72;4965873;28;20226;-62
2022/10/08 02:47:02;;;;;;;0.00;0.00;;;;;;;13.62;100.00;98968.97;4967749;28;20229;-62
2022/10/08 02:49:33;;;;;;;0.00;0.00;;;;;;;13.65;100.00;98972.09;4947414;28;20227;-62
2022/10/08 02:52:02;;;;;;;0.00;0.00;;;;;;;13.67;100.00;98972.75;4966338;28;20319;-62
2022/10/08 02:54:34;;;;;;;0.00;0.00;;;;;;;13.70;100.00;98977.69;4970057;28;20242;-62
2022/10/08 02:57:05;;;;;;;0.00;0.00;;;;;;;13.76;100.00;98980.63;4965370;28;20309;-62
2022/10/08 02:59:33;;;;;;;0.00;0.00;;;;;;;13.79;100.00;98973.25;4970350;28;20246;-62
2022/10/08 03:02:02;;;;;;;0.00;0.00;;;;;;;13.85;100.00;98972.59;5056367;23;20296;-55
2022/10/08 03:04:35;;;;;;;0.00;0.00;;;;;;;13.84;100.00;98984.06;4990033;28;20234;-54
2022/10/08 03:07:02;;;;;;;0.00;0.00;;;;;;;13.81;100.00;98984.41;4984773;28;20676;-56
2022/10/08 03:09:34;;;;;;;0.00;0.00;;;;;;;13.78;100.00;98987.34;4988357;28;20239;-54
2022/10/08 03:12:01;;;;;;;0.00;0.00;;;;;;;13.82;100.00;98980.78;4985455;28;20587;-54
2022/10/08 03:14:30;;;;;;;0.00;0.00;;;;;;;13.88;100.00;98987.19;4990008;28;20365;-54
2022/10/08 03:16:58;;;;;;;0.00;0.00;;;;;;;13.87;100.00;98993.41;4986949;28;20279;-54
2022/10/08 03:19:24;;;;;;;0.00;0.00;;;;;;;13.84;100.00;98993.72;4967315;28;20855;-55
2022/10/08 03:21:54;;;;;;;0.00;0.00;;;;;;;13.87;100.00;98998.66;4987152;28;20713;-54
2022/10/08 03:24:21;;;;;;;0.00;0.00;;;;;;;13.85;100.00;98993.59;4984712;28;20238;-55
2022/10/08 03:26:48;;;;;;;0.00;0.00;;;;;;;13.88;100.00;99001.13;4987787;28;20232;-55
2022/10/08 03:29:15;;;;;;;0.00;0.00;;;;;;;13.84;100.00;99002.44;4986373;28;20288;-55
2022/10/08 03:31:41;;;;;;;0.00;0.00;;;;;;;13.84;100.00;99012.94;4987709;28;20234;-56
2022/10/08 03:34:09;;;;;;;0.00;0.00;;;;;;;13.84;100.00;99015.56;4984789;28;20234;-56
2022/10/08 03:36:36;;;;;;;0.00;0.00;;;;;;;13.85;100.00;99021.63;4985719;28;20288;-54
2022/10/08 03:39:02;;;;;;;0.00;0.00;;;;;;;13.89;100.00;99020.31;4984818;28;20233;-59
2022/10/08 03:41:30;;;;;;;0.00;0.00;;;;;;;13.87;100.00;99023.09;4987106;28;20235;-56
2022/10/08 03:43:57;;;;;;;0.00;0.00;;;;;;;13.88;100.00;99023.91;4990622;28;20272;-55
2022/10/08 03:46:24;;;;;;;0.00;0.00;;;;;;;13.89;100.00;99028.19;4985263;28;20265;-57
2022/10/08 03:48:51;;;;;;;0.00;0.00;;;;;;;13.89;100.00;99028.19;4993831;28;20237;-57
2022/10/08 03:51:22;;;;;;;0.00;0.00;;;;;;;13.89;100.00;99033.44;4984347;28;20257;-57
2022/10/08 03:53:49;;;;;;;0.00;0.00;;;;;;;13.91;100.00;99036.72;4989153;28;20284;-57
2022/10/08 03:56:18;;;;;;;0.00;0.00;;;;;;;13.92;100.00;99035.72;4985613;28;20693;-55
2022/10/08 03:58:45;;;;;;;0.00;0.00;;;;;;;13.96;100.00;99033.63;4988175;28;20648;-57
2022/10/08 04:01:13;;;;;;;0.00;0.00;;;;;;;13.96;100.00;99031.78;4984556;28;20300;-57
2022/10/08 04:03:40;;;;;;;0.00;0.00;;;;;;;13.98;100.00;99031.66;4987130;28;20293;-58
2022/10/08 04:06:07;;;;;;;0.00;0.00;;;;;;;13.96;100.00;99029.16;4965281;28;20645;-58
2022/10/08 04:08:36;;;;;;;0.00;0.00;;;;;;;14.01;100.00;99029.50;4988260;28;20254;-56
2022/10/08 04:11:04;;;;;;;0.00;0.00;;;;;;;14.02;100.00;99040.84;4985511;28;20238;-55
2022/10/08 04:13:30;;;;;;;0.00;0.00;;;;;;;14.02;100.00;99043.47;4990007;28;20743;-55
2022/10/08 04:16:00;;;;;;;0.00;0.00;;;;;;;14.02;100.00;99048.72;4987981;28;20646;-56
2022/10/08 04:18:26;;;;;;;0.00;0.00;;;;;;;14.02;100.00;99040.84;4984645;28;20246;-55
2022/10/08 04:20:56;;;;;;;0.00;0.00;;;;;;;14.03;100.00;99047.72;4985779;28;20238;-59
2022/10/08 04:23:23;;;;;;;0.00;0.00;;;;;;;14.02;100.00;99049.53;4985397;28;20261;-56
2022/10/08 04:25:52;;;;;;;0.00;0.00;;;;;;;14.04;100.00;99054.63;4989076;28;20226;-55
2022/10/08 04:28:19;;;;;;;0.00;0.00;;;;;;;14.03;100.00;99048.53;4985483;28;20332;-57
2022/10/08 04:30:54;;;;;;;0.00;0.00;;;;;;;14.05;100.00;99050.19;4988454;28;20238;-57
2022/10/08 04:33:21;;;;;;;0.00;0.00;;;;;;;14.04;100.00;99052.00;4992421;28;20251;-54
2022/10/08 04:35:47;;;;;;;0.00;0.00;;;;;;;14.06;100.00;99050.03;4987340;28;20232;-56
2022/10/08 04:38:14;;;;;;;0.00;0.00;;;;;;;14.03;100.00;99056.41;4986240;28;20243;-57
2022/10/08 04:40:41;;;;;;;0.00;0.00;;;;;;;14.01;100.00;99057.56;4986000;28;20242;-57
2022/10/08 04:43:09;;;;;;;0.00;0.00;;;;;;;14.01;100.00;99060.19;4985144;28;20231;-56
2022/10/08 04:45:41;;;;;;;0.00;0.00;;;;;;;13.99;100.00;99054.28;4986877;28;20228;-58
2022/10/08 04:48:08;;;;;;;0.00;0.00;;;;;;;13.98;100.00;99056.06;4982560;28;20230;-54
2022/10/08 04:50:35;;;;;;;0.00;0.00;;;;;;;13.97;100.00;99062.31;4967574;28;20233;-56
2022/10/08 04:53:01;;;;;;;0.00;0.00;;;;;;;13.95;100.00;99061.66;4986029;28;20236;-54
2022/10/08 04:55:28;;;;;;;0.00;0.00;;;;;;;13.98;100.00;99066.56;4987075;28;20246;-56
2022/10/08 04:57:54;;;;;;;0.00;0.00;;;;;;;13.94;100.00;99067.88;4987377;28;20244;-55
2022/10/08 05:00:22;;;;;;;0.00;0.00;;;;;;;13.92;100.00;99067.22;4982884;28;20315;-56
2022/10/08 05:02:49;;;;;;;0.00;0.00;;;;;;;13.93;100.00;99074.13;4987348;28;20725;-55
2022/10/08 05:05:15;;;;;;;0.00;0.00;;;;;;;13.92;100.00;99071.66;4983787;28;20238;-55
2022/10/08 05:07:42;;;;;;;0.00;0.00;;;;;;;13.89;100.00;99078.03;4987272;28;20225;-55
2022/10/08 05:10:09;;;;;;;0.00;0.00;;;;;;;13.86;100.00;99070.50;4984747;28;20233;-57
2022/10/08 05:12:36;;;;;;;0.00;0.00;;;;;;;13.84;100.00;99069.81;4986742;28;20297;-56
2022/10/08 05:15:03;;;;;;;0.00;0.00;;;;;;;13.80;100.00;99073.75;4983153;28;20300;-56
2022/10/08 05:17:31;;;;;;;0.00;0.00;;;;;;;13.79;100.00;99074.72;4986195;28;20762;-56
2022/10/08 05:19:57;;;;;;;0.00;0.00;;;;;;;13.78;100.00;99066.06;4986614;28;20286;-56
2022/10/08 05:22:24;;;;;;;0.00;0.00;;;;;;;13.75;100.00;99070.81;4985182;28;20300;-56
2022/10/08 05:24:50;;;;;;;0.00;0.00;;;;;;;13.70;100.00;99076.53;4986146;28;20230;-55
2022/10/08 05:27:17;;;;;;;0.00;0.00;;;;;;;13.68;100.00;99073.25;4982256;28;20237;-56
2022/10/08 05:29:43;;;;;;;0.00;0.00;;;;;;;13.64;100.00;99070.13;4985133;28;20225;-55
2022/10/08 05:32:10;;;;;;;0.00;0.00;;;;;;;13.63;100.00;99076.34;4983436;28;20678;-55
2022/10/08 05:34:38;;;;;;;0.00;0.00;;;;;;;13.58;100.00;99078.63;4985770;28;20237;-55
2022/10/08 05:37:05;;;;;;;0.00;0.00;;;;;;;13.54;100.00;99075.50;4983810;28;20243;-56
2022/10/08 05:39:31;;;;;;;0.00;0.00;;;;;;;13.52;100.00;99074.84;4986315;28;20301;-55
2022/10/08 05:41:58;;;;;;;0.00;0.00;;;;;;;13.52;100.00;99072.22;4985706;28;20719;-55
2022/10/08 05:44:24;;;;;;;0.00;0.00;;;;;;;13.50;100.00;99082.03;4983420;28;20300;-53
2022/10/08 05:46:51;;;;;;;0.00;0.00;;;;;;;13.52;100.00;99074.03;4985614;28;20650;-53
2022/10/08 05:49:19;;;;;;;0.00;0.00;;;;;;;13.53;100.00;99079.09;4988212;28;20743;-53
2022/10/08 05:51:49;;;;;;;0.00;0.00;;;;;;;13.52;100.00;99087.13;4984526;28;20705;-53
2022/10/08 05:54:16;;;;;;;0.00;0.00;;;;;;;13.51;100.00;99085.50;4985104;28;20237;-56
2022/10/08 05:56:43;;;;;;;0.00;0.00;;;;;;;13.51;100.00;99093.38;4985014;28;20277;-54
2022/10/08 05:59:16;;;;;;;0.00;0.00;;;;;;;13.51;100.00;99083.69;4985480;28;20300;-53
2022/10/08 06:01:43;;;;;;;0.00;0.00;;;;;;;13.48;100.00;99084.00;4985575;28;20689;-56
2022/10/08 06:04:11;;;;;;;0.00;0.00;;;;;;;13.51;100.00;99096.00;4981996;28;20225;-55
2022/10/08 06:06:39;;;;;;;0.00;0.00;;;;;;;13.50;100.00;99095.16;4983892;28;20697;-55
2022/10/08 06:09:08;;;;;;;0.00;0.00;;;;;;;13.51;100.00;99093.38;4984395;28;20678;-57
2022/10/08 06:11:36;;;;;;;0.00;0.00;;;;;;;13.52;100.00;99101.06;4984847;28;20665;-56
2022/10/08 06:14:04;;;;;;;0.00;0.00;;;;;;;13.54;100.00;99112.22;4983008;28;20295;-54
2022/10/08 06:16:31;;;;;;;0.00;0.00;;;;;;;13.52;100.00;99106.31;4987359;28;20245;-56
2022/10/08 06:18:58;;;;;;;0.00;0.00;;;;;;;13.51;100.00;99115.16;4987646;28;20714;-56
2022/10/08 06:21:26;;;;;;;0.00;0.00;;;;;;;13.53;100.00;99115.00;4985337;28;20270;-56
2022/10/08 06:23:54;;;;;;;0.00;0.00;;;;;;;13.53;100.00;99115.00;4986127;28;20744;-55
2022/10/08 06:26:25;;;;;;;0.00;0.00;;;;;;;13.61;100.00;99114.22;4981632;28;20292;-56
2022/10/08 06:28:52;;;;;;;0.00;0.00;;;;;;;13.62;100.00;99119.31;4985555;28;20277;-52
2022/10/08 06:31:19;;;;;;;0.00;0.00;;;;;;;13.63;100.00;99120.94;4982978;28;24628;-53
2022/10/08 06:33:46;;;;;;;0.00;0.00;;;;;;;13.66;100.00;99136.38;4988103;28;20500;-54
2022/10/08 06:36:15;;;;;;;0.00;0.00;;;;;;;13.68;100.00;99131.78;4987747;28;20233;-55
2022/10/08 06:38:42;;;;;;;0.00;0.00;;;;;;;13.72;100.00;99133.13;4991885;28;20259;-55
2022/10/08 06:41:09;;;;;;;0.00;0.00;;;;;;;13.78;100.00;99131.66;4985279;28;20224;-56
2022/10/08 06:43:37;;;;;;;0.00;0.00;;;;;;;13.83;100.00;99136.41;4990018;28;20238;-53
2022/10/08 06:46:04;;;;;;;0.00;0.00;;;;;;;13.88;100.00;99142.00;4987448;28;20234;-54
2022/10/08 06:48:31;;;;;;;0.00;0.00;;;;;;;13.94;99.87;99144.00;4991794;28;20296;-54
2022/10/08 06:50:59;;;;;;;0.00;0.00;;;;;;;13.94;99.10;99151.88;4974130;28;20247;-55
2022/10/08 06:53:26;;;;;;;0.00;0.00;;;;;;;13.99;98.82;99151.41;4985814;28;20631;-55
2022/10/08 06:55:56;;;;;;;0.00;0.00;;;;;;;13.99;97.49;99157.44;4988343;28;20308;-54
2022/10/08 06:58:23;;;;;;;0.00;0.00;;;;;;;13.99;96.72;99159.28;4984652;28;20347;-56
2022/10/08 07:01:00;;;;;;;0.00;0.00;;;;;;;14.05;96.76;99153.38;4989692;28;20775;-55
2022/10/08 07:03:27;;;;;;;0.00;0.00;;;;;;;14.10;96.30;99166.00;4986010;28;20585;-54
2022/10/08 07:05:53;;;;;;;0.00;0.00;;;;;;;14.12;96.51;99170.13;4988950;28;20233;-54
2022/10/08 07:08:20;;;;;;;0.00;0.00;;;;;;;14.14;96.19;99173.44;4987283;28;20667;-56
2022/10/08 07:10:48;;;;;;;0.00;0.00;;;;;;;14.22;96.09;99182.31;4989009;28;20237;-53
2022/10/08 07:13:15;;;;;;;0.00;0.00;;;;;;;14.24;95.53;99182.97;4966995;28;20280;-54
2022/10/08 07:15:41;;;;;;;0.00;0.00;;;;;;;14.26;94.21;99181.81;4989319;28;20246;-54
2022/10/08 07:18:11;;;;;;;0.00;0.00;;;;;;;14.37;95.03;99188.53;4984975;28;20242;-55
2022/10/08 07:20:38;;;;;;;0.00;0.00;;;;;;;14.49;95.43;99191.69;4988437;28;20245;-55
2022/10/08 07:23:04;;;;;;;0.00;0.00;;;;;;;14.63;94.23;99194.69;4984348;28;20304;-56
2022/10/08 07:25:31;;;;;;;0.00;0.00;;;;;;;14.71;92.13;99198.16;4975076;28;20223;-56
2022/10/08 07:27:57;;;;;;;0.00;0.00;;;;;;;14.73;90.31;99198.81;4987464;28;20284;-56
2022/10/08 07:30:24;;;;;;;0.00;0.00;;;;;;;14.75;89.82;99202.09;4984284;28;20298;-55
2022/10/08 07:32:52;;;;;;;0.00;0.00;;;;;;;14.82;89.57;99202.28;4988348;28;20246;-55
2022/10/08 07:35:20;;;;;;;0.00;0.00;;;;;;;14.88;87.81;99206.84;4984446;28;20238;-53
2022/10/08 07:37:46;;;;;;;0.00;0.00;;;;;;;15.06;87.11;99205.84;4986983;28;20599;-55
2022/10/08 07:40:13;;;;;;;0.00;0.00;;;;;;;15.15;84.09;99207.50;4984913;28;20289;-53
2022/10/08 07:42:40;;;;;;;0.00;0.00;;;;;;;15.28;82.57;99209.63;4986315;28;20253;-54
2022/10/08 07:45:07;;;;;;;0.00;0.00;;;;;;;15.47;81.04;99205.81;4984236;28;20242;-55
2022/10/08 07:47:34;;;;;;;0.00;0.00;;;;;;;15.52;78.18;99217.63;4987422;28;20239;-55
2022/10/08 07:50:03;;;;;;;0.00;0.00;;;;;;;15.57;77.61;99215.31;4984627;28;20230;-55
2022/10/08 07:52:31;;;;;;;0.00;0.00;;;;;;;15.62;77.24;99223.53;4988223;28;20320;-52
2022/10/08 07:54:57;;;;;;;0.00;0.00;;;;;;;15.60;74.40;99215.78;4988635;28;20230;-55
2022/10/08 07:57:24;;;;;;;0.00;0.00;;;;;;;15.55;73.66;99217.28;4986920;28;20247;-54
2022/10/08 07:59:50;;;;;;;0.00;0.00;;;;;;;15.59;71.00;99222.03;4988565;28;20234;-54
2022/10/08 08:02:17;;;;;;;0.00;0.00;;;;;;;15.78;71.73;99222.66;4984577;28;20763;-52
2022/10/08 08:04:43;;;;;;;0.00;0.00;;;;;;;15.68;73.35;99224.66;4990896;28;20231;-55
2022/10/08 08:07:10;;;;;;;0.00;0.00;;;;;;;15.68;73.27;99222.00;4988084;28;20306;-55
2022/10/08 08:09:38;;;;;;;0.00;0.00;;;;;;;15.68;74.36;99219.38;4987195;28;20643;-52
2022/10/08 08:12:05;;;;;;;0.00;0.00;;;;;;;15.79;76.40;99225.13;4982336;28;20571;-55
2022/10/08 08:14:32;;;;;;;0.00;0.00;;;;;;;16.04;72.64;99232.13;4986636;28;20277;-55
2022/10/08 08:16:59;;;;;;;0.00;0.00;;;;;;;16.00;69.16;99229.00;4990425;28;20242;-54
2022/10/08 08:19:26;;;;;;;0.00;0.00;;;;;;;15.85;69.23;99228.88;4991239;28;20235;-55
2022/10/08 08:21:53;;;;;;;0.00;0.00;;;;;;;15.80;71.38;99231.19;4990023;28;20306;-54
2022/10/08 08:24:19;;;;;;;0.00;0.00;;;;;;;15.63;72.96;99220.72;4984256;28;20235;-55
2022/10/08 08:26:47;;;;;;;0.00;0.00;;;;;;;15.47;73.54;99229.47;4989537;28;20857;-55
2022/10/08 08:29:15;;;;;;;0.00;0.00;;;;;;;15.39;70.12;99234.75;4991716;28;20234;-55
2022/10/08 08:31:43;;;;;;;0.00;0.00;;;;;;;15.18;71.03;99228.19;4991957;28;20234;-53
2022/10/08 08:34:12;;;;;;;0.00;0.00;;;;;;;15.31;72.25;99232.97;4983323;28;20634;-56
2022/10/08 08:36:41;;;;;;;0.00;0.00;;;;;;;15.34;73.34;99237.06;4987495;28;20239;-55
2022/10/08 08:39:13;;;;;;;0.00;0.00;;;;;;;15.30;70.03;99233.97;4986005;28;20301;-55
2022/10/08 08:41:54;;;;;;;0.00;0.00;;;;;;;15.31;68.65;99238.22;4984734;28;20290;-53
2022/10/08 08:44:24;;;;;;;0.00;0.00;;;;;;;15.22;63.40;99233.97;4986491;28;20258;-55
2022/10/08 08:46:56;;;;;;;0.00;0.00;;;;;;;15.44;62.60;99245.59;4985825;28;20226;-57
2022/10/08 08:49:28;;;;;;;0.00;0.00;;;;;;;15.54;65.71;99247.22;4983409;28;20235;-56
2022/10/08 08:51:56;;;;;;;0.00;0.00;;;;;;;15.56;61.90;99240.00;4986280;28;20308;-57
2022/10/08 08:54:23;;;;;;;0.00;0.00;;;;;;;15.47;60.31;99242.63;4983183;28;20292;-55
2022/10/08 08:56:53;;;;;;;0.00;0.00;;;;;;;15.56;60.12;99246.06;4986445;28;20722;-55
2022/10/08 08:59:26;;;;;;;0.00;0.00;;;;;;;15.62;63.87;99255.09;4982512;28;20249;-56
2022/10/08 09:01:57;;;;;;;0.00;0.00;;;;;;;15.56;61.19;99258.41;4986202;28;20235;-56
2022/10/08 09:04:32;;;;;;;0.00;0.00;;;;;;;15.77;63.34;99265.75;4985102;28;20240;-56
2022/10/08 09:07:00;;;;;;;0.00;0.00;;;;;;;15.87;61.20;99265.59;4986754;28;20376;-56
2022/10/08 09:09:33;;;;;;;0.00;0.00;;;;;;;15.82;59.64;99271.34;4982237;28;20297;-55
2022/10/08 09:12:04;;;;;;;0.00;0.00;;;;;;;15.57;61.16;99268.75;4984054;28;20242;-57
2022/10/08 09:14:36;;;;;;;0.00;0.00;;;;;;;15.68;61.50;99275.50;4987206;28;20326;-55
2022/10/08 09:17:14;;;;;;;0.00;0.00;;;;;;;15.75;61.06;99280.88;4982006;28;20276;-58
2022/10/08 09:19:41;;;;;;;0.00;0.00;;;;;;;15.63;61.45;99269.91;4989938;28;20238;-55
2022/10/08 09:22:20;;;;;;;0.00;0.00;;;;;;;15.46;62.63;99271.72;4983151;28;20297;-57
2022/10/08 09:24:49;;;;;;;0.00;0.00;;;;;;;15.52;63.99;99278.16;4986047;28;20237;-55
2022/10/08 09:27:18;;;;;;;0.00;0.00;;;;;;;15.59;63.43;99272.03;4983570;28;20563;-54
2022/10/08 09:29:45;;;;;;;0.00;0.00;;;;;;;15.73;66.30;99272.34;4985932;28;20705;-56
2022/10/08 09:32:16;;;;;;;0.00;0.00;;;;;;;15.75;62.48;99271.19;4983772;28;20225;-56
2022/10/08 09:34:44;;;;;;;0.00;0.00;;;;;;;15.50;64.55;99273.88;4986573;28;20604;-56
2022/10/08 09:37:19;;;;;;;0.00;0.00;;;;;;;15.47;63.32;99271.56;4981364;28;20564;-55
2022/10/08 09:40:17;;;;;;;0.00;0.00;;;;;;;15.37;64.18;99270.13;4976306;28;20228;-56
2022/10/08 09:42:45;;;;;;;0.00;0.00;;;;;;;15.41;63.10;99272.25;4983068;28;20613;-55
2022/10/08 09:45:31;;;;;;;0.00;0.00;;;;;;;15.27;65.05;99283.44;4965132;28;20238;-55
2022/10/08 09:48:16;;;;;;;0.00;0.00;;;;;;;15.34;63.89;99287.03;4985039;28;20313;-55
2022/10/08 09:50:53;;;;;;;0.00;0.00;;;;;;;15.51;63.91;99287.84;4981792;28;20246;-52
2022/10/08 09:53:22;;;;;;;0.00;0.00;;;;;;;15.56;65.88;99295.25;4981777;28;20236;-56
2022/10/08 09:55:53;;;;;;;0.00;0.00;;;;;;;15.50;65.63;99292.28;4984783;28;20313;-54
2022/10/08 09:58:21;;;;;;;0.00;0.00;;;;;;;15.56;65.80;99293.41;4985346;28;20311;-55
2022/10/08 10:00:56;;;;;;;0.00;0.00;;;;;;;15.52;67.32;99291.31;4986818;28;20238;-53
2022/10/08 10:03:25;;;;;;;0.00;0.00;;;;;;;15.47;67.74;99289.16;4984203;28;20313;-55
2022/10/08 10:05:54;;;;;;;0.00;0.00;;;;;;;15.45;67.23;99294.59;4984820;28;20249;-54
2022/10/08 10:08:57;;;;;;;0.00;0.00;;;;;;;15.44;68.13;99295.59;4983591;28;20498;-55
2022/10/08 10:11:32;;;;;;;0.00;0.00;;;;;;;15.20;64.56;99299.06;4986471;28;20231;-54
2022/10/08 10:14:07;;;;;;;0.00;0.00;;;;;;;15.20;66.46;99301.69;4987292;28;20297;-55
2022/10/08 10:16:38;;;;;;;0.00;0.00;;;;;;;15.22;66.38;99299.72;4987481;28;20230;-54
2022/10/08 10:19:12;;;;;;;0.00;0.00;;;;;;;15.11;67.10;99302.66;4987622;28;20235;-54
2022/10/08 10:21:44;;;;;;;0.00;0.00;;;;;;;15.11;66.48;99300.84;4988375;28;20241;-54
2022/10/08 10:24:34;;;;;;;0.00;0.00;;;;;;;15.19;66.25;99306.09;4968027;28;20590;-54
2022/10/08 10:27:08;;;;;;;0.00;0.00;;;;;;;15.42;64.44;99315.13;4986129;28;20238;-56
2022/10/08 10:29:45;;;;;;;0.00;0.00;;;;;;;15.60;65.79;99307.88;4988014;28;20645;-55
2022/10/08 10:32:17;;;;;;;0.00;0.00;;;;;;;15.85;64.76;99301.78;4987475;28;20238;-55
2022/10/08 10:34:45;;;;;;;0.00;0.00;;;;;;;15.83;64.30;99304.56;4987906;28;20289;-57
2022/10/08 10:37:15;;;;;;;0.00;0.00;;;;;;;15.87;63.22;99299.81;4985620;28;20234;-56
2022/10/08 10:39:50;;;;;;;0.00;0.00;;;;;;;15.84;62.71;99294.88;4987697;28;20238;-56
2022/10/08 10:42:22;;;;;;;0.00;0.00;;;;;;;16.32;61.75;99293.06;4985309;28;20244;-57
2022/10/08 10:44:56;;;;;;;0.00;0.00;;;;;;;16.38;61.85;99300.28;4990529;28;20718;-57
2022/10/08 10:47:25;;;;;;;0.00;0.00;;;;;;;16.51;60.03;99306.81;4987877;28;20737;-56
2022/10/08 10:49:52;;;;;;;0.00;0.00;;;;;;;16.71;58.08;99304.56;4991138;28;20239;-56
2022/10/08 10:52:42;;;;;;;0.00;0.00;;;;;;;16.73;58.20;99302.56;4988655;28;20241;-53
2022/10/08 10:55:23;;;;;;;0.00;0.00;;;;;;;16.84;56.99;99306.63;4985189;28;20239;-56
2022/10/08 10:58:07;;;;;;;0.00;0.00;;;;;;;16.72;57.49;99300.91;4990035;28;20242;-56
2022/10/08 11:00:42;;;;;;;0.00;0.00;;;;;;;16.63;58.21;99301.97;4987781;28;20234;-55
2022/10/08 11:03:15;;;;;;;0.00;0.00;;;;;;;16.44;58.69;99301.41;4983796;28;20297;-54
2022/10/08 11:05:47;;;;;;;0.00;0.00;;;;;;;16.55;59.17;99299.38;4989112;28;20270;-56
2022/10/08 11:08:35;;;;;;;0.00;0.00;;;;;;;16.96;56.89;99305.22;4988930;28;20223;-55
2022/10/08 11:11:21;;;;;;;0.00;0.00;;;;;;;16.92;58.58;99301.31;4957796;28;20241;-52
2022/10/08 11:14:11;;;;;;;0.00;0.00;;;;;;;17.15;55.28;99305.75;4986018;28;20656;-57
2022/10/08 11:16:54;;;;;;;0.00;0.00;;;;;;;16.93;54.57;99295.03;4983603;28;20242;-55
2022/10/08 11:19:33;;;;;;;0.00;0.00;;;;;;;16.54;55.72;99301.19;4986430;28;20285;-56
2022/10/08 11:22:07;;;;;;;0.00;0.00;;;;;;;16.53;54.88;99304.81;4984460;28;20232;-52
2022/10/08 11:25:19;;;;;;;0.00;0.00;;;;;;;16.50;54.68;99305.16;4989598;28;20561;-55
2022/10/08 11:28:00;;;;;;;0.00;0.00;;;;;;;16.94;55.28;99298.47;4979489;28;20235;-53
2022/10/08 11:30:40;;;;;;;0.00;0.00;;;;;;;17.09;55.37;99303.81;4984605;28;20258;-54
2022/10/08 11:33:12;;;;;;;0.00;0.00;;;;;;;17.27;56.74;99301.72;4985410;28;20580;-54
2022/10/08 11:35:46;;;;;;;0.00;0.00;;;;;;;17.30;55.22;99300.53;4990719;28;20231;-54
2022/10/08 11:38:18;;;;;;;0.00;0.00;;;;;;;16.79;54.96;99293.16;4984147;28;20322;-56
2022/10/08 11:40:48;;;;;;;0.00;0.00;;;;;;;16.76;55.47;99298.78;4988029;28;20246;-55
2022/10/08 11:43:24;;;;;;;0.00;0.00;;;;;;;17.10;55.06;99305.47;4984883;28;20234;-56
2022/10/08 11:46:21;;;;;;;0.00;0.00;;;;;;;17.30;54.44;99305.81;4987630;28;20237;-54